Terminal Aerodrome Forecast
Issued by NWS Cleveland, OH

Home | Current Version | Previous Version | Graphics & Text | Print | Product List | Glossary On
Versions: 1 2 3 4 5 6 7 8 9 10 11 12 13 14 15 16
216
FTUS41 KCLE 140524
TAFTOL
TAF
KTOL 140524Z 1406/1506 08008KT P6SM OVC110
     FM141300 06004KT P6SM OVC060
     FM141800 28004KT P6SM OVC060
     FM142300 31004KT P6SM BKN200=

USA.gov is the U.S. government's official web portal to all federal, state and local government web resources and services.